Airfield :
LOGIN :

Register | Disclaimer

   EN    FR    IT 

 










Legend :    VFR   Marginal VFR   IFR   Intensive IFR   Very Intensive IFR
Visi :
Ceiling :
>= 8 km
>= 3000ft
5 to 8 km
1000 to 3000 ft
1500m to 5 km
500 to 1000 ft
800 to 1500m
200 to 500 ft
< 800m
< 200 ft
Symbols :   Thunderstorms  Fog  Heavy snow  Heavy precipitations  Wind > 20 kt
SIGMETs :     Misc.  Thunderstorms  Icing  Turbulence  Mountain Waves  Volcanic Ashes






- Airport Elevation : 36 ft
- IATA code : LTQ


LFAT - Le Touquet

CURRENT METAR :
  • 121400Z AUTO 16013G24KT 140V200 9999 OVC012 06/04 Q0990 NOSIG

EXPIRED METARs :
  • 121330Z AUTO 16015G26KT 9999 OVC012 06/04 Q0991 NOSIG
  • 121300Z AUTO 16012KT 9999 BKN014 OVC019 06/04 Q0992 BECMG 16015G25KT
  • 121230Z AUTO 16013KT 140V200 9999 BKN012 BKN019 BKN027 06/04 Q0993 BECMG 16015G25KT
  • 121200Z AUTO 16014KT 9000 -RA SCT012 SCT021 BKN034 05/04 Q0994 BECMG 16015G25KT OVC012
  • 121130Z AUTO 16012KT 9999 BKN035 OVC042 05/03 Q0995 TEMPO 4000 RA BECMG 16015G28KT OVC014

TAF TAF LFAT
Valid from the 12 at 12:00 until the 12 at 21:00 UTC


121100Z 1212/1221 16015G25KT 9999 SCT012 BKN030
BECMG 1213/1216 OVC012
TEMPO 1216/1220 16020G35KT 4000 RA OVC008
BECMG 1220/1221 26015G30KT SCT012 BKN025CB
ATIS : +33 3 21 06 62 84



MET'MAP, your aeronautical weather chart ! - Copyright ORBIFLY December 2007 - Disclaimer

ORBIFLY MET'MAP TEAM :

Programming & Development : Alexandra Zaïnal
Concept & original design : Baudouin d'Aumeries
Assistance for programming : Marc-Olivier Méhu
Technical & hardware support : Manuel Goepfert

Contact : metmap@orbifly.com




SOURCES & CREDITS :

   NOAA